logo tempoitalia

Diretta Meteo Catania-Fontanarossa, Italiamartedì 16 agosto ore 17:50

Mappa
Sereno 34 °C Poco Nuvoloso 24 Ore: T.min 26 T.max 35
Ponente Nord-Est Km/h 20.3 Punto di rugiada: 14 °C Umidità: 30% Visibilità: 10 Km
Il sole sorge alle: 06:15 Il sole tramonta alle: 19:52
16 Agosto 2022 17:50 tempo osservato: Poco Nuvoloso Poco Nuvoloso 34 30 1011 vento: Nord NE 20.3
16 Agosto 2022 17:20 tempo osservato: Poco Nuvoloso Poco Nuvoloso 34 32 1012 vento: Nord NE 22.2
16 Agosto 2022 16:50 tempo osservato: Poco Nuvoloso Poco Nuvoloso 34 30 1011 vento: Nord NE 22.2
16 Agosto 2022 16:20 tempo osservato: Poco Nuvoloso Poco Nuvoloso 35 30 1011 vento: Nord NE 24
16 Agosto 2022 15:50 tempo osservato: Poco Nuvoloso Poco Nuvoloso 34 41 1011 vento: Nord E/NE 24
16 Agosto 2022 15:20 tempo osservato: Poco Nuvoloso Poco Nuvoloso 33 43 1011 vento: Nord E/NE 24
16 Agosto 2022 14:50 tempo osservato: Sereno Sereno 32 52 1011 vento: Nord E 24
16 Agosto 2022 14:20 tempo osservato: Sereno Sereno 32 55 1011 vento: Nord E 20.3
16 Agosto 2022 13:50 tempo osservato: Sereno Sereno 35 44 1011 vento: Nord E 16.7
16 Agosto 2022 13:20 tempo osservato: Sereno Sereno 35 30 1011 vento: Nord E 16.7
16 Agosto 2022 12:50 tempo osservato: Sereno Sereno 35 32 1011 vento: Nord E/SE 13
16 Agosto 2022 12:20 tempo osservato: Sereno Sereno 34 38 1011 vento: Nord E 18.5
16 Agosto 2022 11:50 tempo osservato: Sereno Sereno 35 32 1011 vento: Nord E 13
16 Agosto 2022 11:20 tempo osservato: Sereno Sereno 35 32 1011 vento: Nord N 7.4
16 Agosto 2022 10:50 tempo osservato: Sereno Sereno 34 32 1011 vento: Nord S/SE 7.4
16 Agosto 2022 10:20 tempo osservato: Sereno Sereno 33 36 1011 vento: Nord SO 11.1
16 Agosto 2022 09:50 tempo osservato: Sereno Sereno 33 38 1012 vento: Nord O 11.1
16 Agosto 2022 09:20 tempo osservato: Sereno Sereno 31 48 1011 vento: Nord SO 13
16 Agosto 2022 08:50 tempo osservato: Poco Nuvoloso Poco Nuvoloso 29 62 1011 vento: Nord O/SO 13
16 Agosto 2022 08:20 tempo osservato: Poco Nuvoloso Poco Nuvoloso 28 69 1011 vento: Nord O/SO 11.1
16 Agosto 2022 07:50 tempo osservato: Poco Nuvoloso Poco Nuvoloso 28 69 1011 vento: Nord N 5.5
16 Agosto 2022 07:20 tempo osservato: Sereno Sereno 26 83 1011 vento: Nord O/SO 9.3
16 Agosto 2022 06:50 tempo osservato: Sereno Sereno 26 83 1011 vento: Nord N 3.7
16 Agosto 2022 06:20 tempo osservato: Sereno Sereno 27 78 1011 vento: Nord N 3.7
16 Agosto 2022 05:50 tempo osservato: Sereno Sereno 27 83 1010 vento: Nord E/NE 11.1
16 Agosto 2022 05:20 tempo osservato: Sereno Sereno 28 61 1010 vento: Nord N 5.5
16 Agosto 2022 04:50 tempo osservato: Sereno Sereno 28 65 1011 vento: Nord N 3.7
16 Agosto 2022 04:20 tempo osservato: Sereno Sereno 28 65 1011 vento: Nord NO 11.1
16 Agosto 2022 03:50 tempo osservato: Sereno Sereno 28 69 1010 vento: Nord O 18.5
16 Agosto 2022 03:20 tempo osservato: Sereno Sereno 28 69 1010 vento: Nord O/SO 20.3
16 Agosto 2022 02:50 tempo osservato: Sereno Sereno 28 69 1010 vento: Nord O/SO 20.3
16 Agosto 2022 02:20 tempo osservato: Sereno Sereno 28 65 1011 vento: Nord O/SO 25.9
16 Agosto 2022 01:50 tempo osservato: Sereno Sereno 28 61 1012 vento: Nord O/SO 24
16 Agosto 2022 01:20 tempo osservato: Sereno Sereno 28 65 1012 vento: Nord O/SO 22.2
16 Agosto 2022 00:50 tempo osservato: Sereno Sereno 28 61 1012 vento: Nord O/SO 25.9
16 Agosto 2022 00:20 tempo osservato: Sereno Sereno 26 73 1011 vento: Nord O 9.3
15 Agosto 2022 23:50 tempo osservato: Sereno Sereno 27 74 1011 vento: Nord N 5.5
15 Agosto 2022 23:20 tempo osservato: Sereno Sereno 27 74 1012 vento: Nord SO 9.3
15 Agosto 2022 22:50 tempo osservato: Sereno Sereno 27 69 1012 vento: Nord O/SO 7.4
15 Agosto 2022 22:20 tempo osservato: Sereno Sereno 28 65 1011 vento: Nord N 3.7
15 Agosto 2022 21:50 tempo osservato: Sereno Sereno 29 66 1011 vento: Nord N 9.3
15 Agosto 2022 21:20 tempo osservato: Sereno Sereno 29 66 1011 vento: Nord N/NE 14.8
15 Agosto 2022 20:50 tempo osservato: Sereno Sereno 29 66 1010 vento: Nord N/NE 16.7
15 Agosto 2022 20:20 tempo osservato: Sereno Sereno 29 66 1009 vento: Nord NE 18.5
15 Agosto 2022 19:50 tempo osservato: Sereno Sereno 29 66 1010 vento: Nord NE 18.5
15 Agosto 2022 19:20 tempo osservato: Poco Nuvoloso Poco Nuvoloso 29 66 1010 vento: Nord NE 16.7
15 Agosto 2022 18:50 tempo osservato: Poco Nuvoloso Poco Nuvoloso 29 70 1010 vento: Nord E 18.5